Time;durP1;ratioP1;P1;durP2;ratioP2;P2;SDS_P1;SDS_P2;PMS_P1;PMS_P2;Temp;Humidity;BMP_temperature;BMP_pressure;BME280_temperature;BME280_humidity;BME280_pressure;Samples;Min_cycle;Max_cycle;Signal;HPM_P1;HPM_P2
2022/11/25 00:01:12;;;;;;;16.10;3.75;;;;;;;;;;5034140;28;20050;-79
2022/11/25 00:03:39;;;;;;;15.35;3.10;;;;;;;;;;5030508;28;20099;-79
2022/11/25 00:06:11;;;;;;;9.25;2.83;;;;;;;;;;5048466;28;20052;-80
2022/11/25 00:08:38;;;;;;;9.88;2.92;;;;;;;;;;5052076;28;20056;-79
2022/11/25 00:11:05;;;;;;;11.27;3.10;;;;;;;;;;5051017;28;20490;-79
2022/11/25 00:13:32;;;;;;;10.30;3.20;;;;;;;;;;5049552;28;20053;-79
2022/11/25 00:16:02;;;;;;;10.55;3.00;;;;;;;;;;5051999;28;20049;-81
2022/11/25 00:18:29;;;;;;;12.18;2.92;;;;;;;;;;5049848;28;20092;-80
2022/11/25 00:20:55;;;;;;;8.75;2.60;;;;;;;;;;5056821;28;20045;-78
2022/11/25 00:23:22;;;;;;;13.55;3.20;;;;;;;;;;5061296;28;20417;-79
2022/11/25 00:25:48;;;;;;;5.82;2.38;;;;;;;;;;5053637;28;20059;-81
2022/11/25 00:28:16;;;;;;;8.82;3.20;;;;;;;;;;5051235;28;20049;-80
2022/11/25 00:30:42;;;;;;;7.95;3.03;;;;;;;;;;5052555;28;20060;-80
2022/11/25 00:33:09;;;;;;;7.95;3.22;;;;;;;;;;5055717;28;20256;-79
2022/11/25 00:35:35;;;;;;;7.50;3.10;;;;;;;;;;5052531;28;20510;-80
2022/11/25 00:38:01;;;;;;;11.55;3.95;;;;;;;;;;5052983;28;20053;-79
2022/11/25 00:40:28;;;;;;;14.70;3.20;;;;;;;;;;5052189;28;20100;-80
2022/11/25 00:45:39;;;;;;;12.82;3.45;;;;;;;;;;5052050;28;20073;-80
2022/11/25 00:48:08;;;;;;;7.85;3.67;;;;;;;;;;5052050;28;20048;-79
2022/11/25 00:50:35;;;;;;;9.90;3.90;;;;;;;;;;5051127;28;20052;-79
2022/11/25 00:53:01;;;;;;;11.30;4.32;;;;;;;;;;5052592;28;20045;-79
2022/11/25 00:56:11;;;;;;;10.25;3.45;;;;;;;;;;5051760;28;20078;-79
2022/11/25 00:58:14;;;;;;;14.43;4.10;;;;;;;;;;5050466;28;20421;-80
2022/11/25 01:00:40;;;;;;;13.30;4.22;;;;;;;;;;5050811;28;20049;-80
2022/11/25 01:03:06;;;;;;;8.30;4.25;;;;;;;;;;5049982;28;20041;-77
2022/11/25 01:05:33;;;;;;;12.35;4.68;;;;;;;;;;5050021;28;20404;-79
2022/11/25 01:07:59;;;;;;;10.77;4.55;;;;;;;;;;5051449;28;20051;-80
2022/11/25 01:10:25;;;;;;;8.00;3.70;;;;;;;;;;5050969;28;20433;-79
2022/11/25 01:12:52;;;;;;;6.88;3.38;;;;;;;;;;5050158;28;20061;-80
2022/11/25 01:15:18;;;;;;;13.65;4.00;;;;;;;;;;5038380;28;20076;-79
2022/11/25 01:17:45;;;;;;;15.63;3.90;;;;;;;;;;5031865;28;20486;-79
2022/11/25 01:20:11;;;;;;;11.70;4.07;;;;;;;;;;5029235;28;20110;-79
2022/11/25 01:22:38;;;;;;;13.60;3.95;;;;;;;;;;5039971;28;20060;-79
2022/11/25 01:25:04;;;;;;;12.48;4.50;;;;;;;;;;5050917;28;20237;-80
2022/11/25 01:27:30;;;;;;;14.73;4.60;;;;;;;;;;5050956;28;20060;-81
2022/11/25 01:29:57;;;;;;;12.05;4.93;;;;;;;;;;5052866;28;20068;-79
2022/11/25 01:32:23;;;;;;;18.83;4.65;;;;;;;;;;5052844;28;20041;-80
2022/11/25 01:34:49;;;;;;;9.48;4.13;;;;;;;;;;5052600;28;20497;-78
2022/11/25 01:37:16;;;;;;;13.77;5.82;;;;;;;;;;5053726;28;20059;-79
2022/11/25 01:39:42;;;;;;;10.82;5.45;;;;;;;;;;5053855;28;20041;-78
2022/11/25 01:42:09;;;;;;;12.10;5.70;;;;;;;;;;5053058;28;20244;-78
2022/11/25 01:44:37;;;;;;;15.48;5.40;;;;;;;;;;5053055;28;20057;-78
2022/11/25 01:47:15;;;;;;;20.77;6.10;;;;;;;;;;5053494;28;20049;-81
2022/11/25 01:49:47;;;;;;;15.75;5.93;;;;;;;;;;5052031;28;20302;-78
2022/11/25 01:52:16;;;;;;;14.55;5.03;;;;;;;;;;5052936;28;20045;-75
2022/11/25 01:54:47;;;;;;;13.43;5.05;;;;;;;;;;5053578;28;20072;-79
2022/11/25 01:57:17;;;;;;;11.57;5.75;;;;;;;;;;5052686;28;20052;-79
2022/11/25 01:59:46;;;;;;;14.00;6.00;;;;;;;;;;5053660;28;20041;-80
2022/11/25 02:02:13;;;;;;;13.85;5.40;;;;;;;;;;5052988;28;20313;-79
2022/11/25 02:04:40;;;;;;;9.75;5.15;;;;;;;;;;5046363;28;20155;-78
2022/11/25 02:07:17;;;;;;;13.60;6.18;;;;;;;;;;5057666;28;20071;-79
2022/11/25 02:09:44;;;;;;;18.27;5.72;;;;;;;;;;5059305;28;20049;-79
2022/11/25 02:12:11;;;;;;;14.52;6.18;;;;;;;;;;5059896;28;20044;-78
2022/11/25 02:14:38;;;;;;;13.70;6.18;;;;;;;;;;5052439;28;20046;-80
2022/11/25 02:17:04;;;;;;;16.13;6.43;;;;;;;;;;5033087;28;20053;-79
2022/11/25 02:19:51;;;;;;;12.27;5.57;;;;;;;;;;5031984;28;20051;-79
2022/11/25 02:22:22;;;;;;;17.55;6.25;;;;;;;;;;5036384;28;20056;-77
2022/11/25 02:24:51;;;;;;;12.52;5.90;;;;;;;;;;5054377;28;20079;-78
2022/11/25 02:27:18;;;;;;;12.02;6.00;;;;;;;;;;5039015;28;20136;-79
2022/11/25 02:29:44;;;;;;;11.18;6.18;;;;;;;;;;5039595;28;20060;-79
2022/11/25 02:32:11;;;;;;;17.83;5.78;;;;;;;;;;5040335;28;20041;-79
2022/11/25 02:34:45;;;;;;;15.55;6.43;;;;;;;;;;5039214;28;20132;-79
2022/11/25 02:37:11;;;;;;;16.38;6.72;;;;;;;;;;5042854;28;20076;-79
2022/11/25 02:39:38;;;;;;;16.73;6.75;;;;;;;;;;5048019;28;20136;-78
2022/11/25 02:42:05;;;;;;;16.48;6.15;;;;;;;;;;5051813;28;20071;-79
2022/11/25 02:44:31;;;;;;;14.93;6.53;;;;;;;;;;5040577;28;20079;-77
2022/11/25 02:46:58;;;;;;;14.55;6.70;;;;;;;;;;5042883;28;20111;-79
2022/11/25 02:49:24;;;;;;;16.63;6.63;;;;;;;;;;5032840;28;20051;-79
2022/11/25 02:51:51;;;;;;;13.55;6.00;;;;;;;;;;5033918;28;20049;-81
2022/11/25 02:54:17;;;;;;;17.15;5.80;;;;;;;;;;5033311;28;20414;-80
2022/11/25 02:56:43;;;;;;;13.65;6.35;;;;;;;;;;5033703;28;20149;-79
2022/11/25 02:59:10;;;;;;;18.35;6.63;;;;;;;;;;5033743;28;20073;-81
2022/11/25 03:01:37;;;;;;;17.60;6.78;;;;;;;;;;5033873;28;20061;-79
2022/11/25 03:04:04;;;;;;;18.92;7.28;;;;;;;;;;5032002;28;20199;-80
2022/11/25 03:06:30;;;;;;;18.63;6.70;;;;;;;;;;5051807;28;20465;-78
2022/11/25 03:08:57;;;;;;;18.23;6.60;;;;;;;;;;5051849;28;20563;-79
2022/11/25 03:14:09;;;;;;;19.65;6.47;;;;;;;;;;5050234;28;20068;-80
2022/11/25 03:16:35;;;;;;;14.57;6.72;;;;;;;;;;5033745;28;20045;-79
2022/11/25 03:19:02;;;;;;;17.02;7.28;;;;;;;;;;5032643;28;20071;-80
2022/11/25 03:21:28;;;;;;;19.48;7.20;;;;;;;;;;5051775;28;20051;-80
2022/11/25 03:23:54;;;;;;;19.95;6.97;;;;;;;;;;5052640;28;20064;-81
2022/11/25 03:26:21;;;;;;;19.05;7.55;;;;;;;;;;5052317;28;20045;-80
2022/11/25 03:28:47;;;;;;;19.15;7.50;;;;;;;;;;5052449;28;20049;-80
2022/11/25 03:31:14;;;;;;;26.13;8.23;;;;;;;;;;5052919;28;20374;-79
2022/11/25 03:33:40;;;;;;;21.17;8.35;;;;;;;;;;5050914;28;20095;-79
2022/11/25 03:36:06;;;;;;;16.92;7.82;;;;;;;;;;5052588;28;20068;-79
2022/11/25 03:38:33;;;;;;;16.80;7.80;;;;;;;;;;5053683;28;20044;-79
2022/11/25 03:40:59;;;;;;;21.35;7.32;;;;;;;;;;5051463;28;20053;-80
2022/11/25 03:43:26;;;;;;;30.95;8.40;;;;;;;;;;5051534;28;20056;-80
2022/11/25 03:45:52;;;;;;;38.15;7.60;;;;;;;;;;5051470;28;20107;-79
2022/11/25 03:48:21;;;;;;;21.33;8.32;;;;;;;;;;5051841;28;20183;-78
2022/11/25 03:50:48;;;;;;;16.33;7.60;;;;;;;;;;5052430;28;20057;-79
2022/11/25 03:53:14;;;;;;;21.00;8.18;;;;;;;;;;5051259;28;20045;-79
2022/11/25 03:55:41;;;;;;;23.05;8.32;;;;;;;;;;5049951;28;20059;-79
2022/11/25 03:58:07;;;;;;;24.10;8.93;;;;;;;;;;5052253;28;20103;-78
2022/11/25 04:00:34;;;;;;;25.58;8.55;;;;;;;;;;5051965;28;20052;-78
2022/11/25 04:03:01;;;;;;;20.88;7.95;;;;;;;;;;5051942;28;20056;-79
2022/11/25 04:05:27;;;;;;;28.05;7.78;;;;;;;;;;5050244;28;20045;-79
2022/11/25 04:07:54;;;;;;;25.50;8.70;;;;;;;;;;5051025;28;20049;-79
2022/11/25 04:10:23;;;;;;;24.38;8.35;;;;;;;;;;5052163;28;20052;-80
2022/11/25 04:12:51;;;;;;;24.90;8.90;;;;;;;;;;5052992;28;20049;-79
2022/11/25 04:15:17;;;;;;;24.17;8.27;;;;;;;;;;5053474;28;20148;-80
2022/11/25 04:17:44;;;;;;;21.23;8.93;;;;;;;;;;5052613;28;20041;-80
2022/11/25 04:20:12;;;;;;;17.10;7.97;;;;;;;;;;5050787;28;20476;-79
2022/11/25 04:22:39;;;;;;;30.55;9.20;;;;;;;;;;5051051;28;20608;-78
2022/11/25 04:25:05;;;;;;;21.38;8.63;;;;;;;;;;5051668;28;20057;-79
2022/11/25 04:27:32;;;;;;;23.52;8.25;;;;;;;;;;5052298;28;20528;-78
2022/11/25 04:29:58;;;;;;;28.17;9.73;;;;;;;;;;5051776;28;20584;-80
2022/11/25 04:32:25;;;;;;;27.52;9.18;;;;;;;;;;5049294;28;20552;-80
2022/11/25 04:34:52;;;;;;;23.50;8.00;;;;;;;;;;5050286;28;20068;-79
2022/11/25 04:37:19;;;;;;;22.08;9.48;;;;;;;;;;5050593;28;20059;-78
2022/11/25 04:39:45;;;;;;;20.48;9.05;;;;;;;;;;5049237;28;20045;-80
2022/11/25 04:44:57;;;;;;;24.83;8.98;;;;;;;;;;5051127;28;20514;-79
2022/11/25 04:47:44;;;;;;;26.27;9.23;;;;;;;;;;5048300;28;20080;-77
2022/11/25 04:50:14;;;;;;;29.58;10.23;;;;;;;;;;5048664;28;20504;-78
2022/11/25 04:52:41;;;;;;;24.15;9.85;;;;;;;;;;5051349;28;20132;-78
2022/11/25 04:55:08;;;;;;;21.70;8.60;;;;;;;;;;5051761;28;20056;-80
2022/11/25 04:57:34;;;;;;;23.13;7.90;;;;;;;;;;5038170;28;20080;-78
2022/11/25 05:00:01;;;;;;;23.70;8.43;;;;;;;;;;5030521;28;20111;-77
2022/11/25 05:02:27;;;;;;;30.15;10.73;;;;;;;;;;5028814;28;20508;-78
2022/11/25 05:04:55;;;;;;;24.95;9.77;;;;;;;;;;5043061;28;20049;-78
2022/11/25 05:07:23;;;;;;;26.75;9.98;;;;;;;;;;5055577;28;20385;-79
2022/11/25 05:09:49;;;;;;;24.30;9.75;;;;;;;;;;5056866;28;20502;-78
2022/11/25 05:12:27;;;;;;;21.80;8.90;;;;;;;;;;5056598;28;20096;-80
2022/11/25 05:14:54;;;;;;;21.27;8.88;;;;;;;;;;5055348;28;20049;-79
2022/11/25 05:17:24;;;;;;;25.42;8.02;;;;;;;;;;5054849;28;20059;-79
2022/11/25 05:19:53;;;;;;;20.63;8.43;;;;;;;;;;5059103;28;20057;-77
2022/11/25 05:22:20;;;;;;;24.27;8.38;;;;;;;;;;5055954;28;20144;-79
2022/11/25 05:24:47;;;;;;;22.30;8.55;;;;;;;;;;5054892;28;20060;-79
2022/11/25 05:27:14;;;;;;;21.00;8.68;;;;;;;;;;5053990;28;20053;-78
2022/11/25 05:29:40;;;;;;;26.83;9.43;;;;;;;;;;5055827;28;20398;-80
2022/11/25 05:32:07;;;;;;;21.48;8.60;;;;;;;;;;5055417;28;20079;-78
2022/11/25 05:34:33;;;;;;;21.95;8.80;;;;;;;;;;5051380;28;20048;-79
2022/11/25 05:37:00;;;;;;;19.42;8.32;;;;;;;;;;5054523;28;20057;-78
2022/11/25 05:39:26;;;;;;;97.90;29.13;;;;;;;;;;5051510;28;20045;-77
2022/11/25 05:41:53;;;;;;;39.45;14.75;;;;;;;;;;5050224;28;20055;-77
2022/11/25 05:44:19;;;;;;;37.83;11.48;;;;;;;;;;5049852;28;20045;-77
2022/11/25 05:46:48;;;;;;;35.42;13.10;;;;;;;;;;5050824;28;20049;-77
2022/11/25 05:49:15;;;;;;;33.03;11.52;;;;;;;;;;5050522;28;20476;-77
2022/11/25 05:51:42;;;;;;;21.67;8.43;;;;;;;;;;5052459;28;20045;-78
2022/11/25 05:54:08;;;;;;;31.98;11.18;;;;;;;;;;5060903;28;20033;-77
2022/11/25 05:56:35;;;;;;;35.83;11.93;;;;;;;;;;5056626;28;20463;-79
2022/11/25 05:59:01;;;;;;;39.85;12.20;;;;;;;;;;5054375;28;20036;-78
2022/11/25 06:01:28;;;;;;;49.35;14.63;;;;;;;;;;5055610;28;20052;-78
2022/11/25 06:03:58;;;;;;;28.67;8.77;;;;;;;;;;5053366;28;20044;-77
2022/11/25 06:06:24;;;;;;;26.60;9.40;;;;;;;;;;5054195;28;20049;-80
2022/11/25 06:08:53;;;;;;;29.17;8.90;;;;;;;;;;5053203;28;20084;-79
2022/11/25 06:11:19;;;;;;;28.63;9.25;;;;;;;;;;5054037;28;20053;-79
2022/11/25 06:13:45;;;;;;;47.78;13.93;;;;;;;;;;5052842;28;20041;-79
2022/11/25 06:16:14;;;;;;;38.53;11.68;;;;;;;;;;5052491;28;20570;-78
2022/11/25 06:18:41;;;;;;;38.97;12.85;;;;;;;;;;5054809;28;20087;-80
2022/11/25 06:21:08;;;;;;;36.85;12.15;;;;;;;;;;5053167;28;20140;-80
2022/11/25 06:23:35;;;;;;;36.80;10.88;;;;;;;;;;5050763;28;20068;-79
2022/11/25 06:26:21;;;;;;;36.10;11.50;;;;;;;;;;5053635;28;20059;-79
2022/11/25 06:28:51;;;;;;;60.20;17.90;;;;;;;;;;5056288;28;20059;-80
2022/11/25 06:31:19;;;;;;;39.05;13.43;;;;;;;;;;5057365;28;20056;-78
2022/11/25 06:33:46;;;;;;;34.85;11.95;;;;;;;;;;5060167;28;20553;-80
2022/11/25 06:36:15;;;;;;;42.13;13.52;;;;;;;;;;5055200;28;20060;-80
2022/11/25 06:38:46;;;;;;;28.17;9.63;;;;;;;;;;5056127;28;20057;-81
2022/11/25 06:41:13;;;;;;;24.42;8.98;;;;;;;;;;5053082;28;20049;-79
2022/11/25 06:43:41;;;;;;;29.35;10.15;;;;;;;;;;5051628;28;20053;-78
2022/11/25 06:46:09;;;;;;;25.50;10.05;;;;;;;;;;5050554;28;20056;-78
2022/11/25 06:48:36;;;;;;;26.95;9.75;;;;;;;;;;5052498;28;20053;-78
2022/11/25 06:51:03;;;;;;;30.88;10.68;;;;;;;;;;5053223;28;20064;-78
2022/11/25 06:53:30;;;;;;;22.30;8.73;;;;;;;;;;5052630;28;20075;-78
2022/11/25 06:56:04;;;;;;;27.20;9.15;;;;;;;;;;5051990;28;20064;-78
2022/11/25 06:58:30;;;;;;;25.00;8.60;;;;;;;;;;5053038;28;20080;-80
2022/11/25 07:01:03;;;;;;;28.55;8.98;;;;;;;;;;5052083;28;20045;-79
2022/11/25 07:03:30;;;;;;;23.95;6.97;;;;;;;;;;5051197;28;20168;-79
2022/11/25 07:05:57;;;;;;;24.15;7.30;;;;;;;;;;5052066;28;20052;-78
2022/11/25 07:08:24;;;;;;;24.77;9.15;;;;;;;;;;5047636;28;20528;-79
2022/11/25 07:11:09;;;;;;;36.22;10.50;;;;;;;;;;5033062;28;20453;-81
2022/11/25 07:13:35;;;;;;;22.77;8.35;;;;;;;;;;5032424;28;20288;-79
2022/11/25 07:16:05;;;;;;;31.65;9.50;;;;;;;;;;5050071;28;20048;-79
2022/11/25 07:18:32;;;;;;;23.77;7.13;;;;;;;;;;5050698;28;20052;-77
2022/11/25 07:21:03;;;;;;;16.48;7.13;;;;;;;;;;5049047;28;20458;-77
2022/11/25 07:23:30;;;;;;;23.17;7.30;;;;;;;;;;5050666;28;20144;-77
2022/11/25 07:26:00;;;;;;;24.08;7.65;;;;;;;;;;5051022;28;20052;-78
2022/11/25 07:28:26;;;;;;;29.30;9.48;;;;;;;;;;5051531;28;20463;-79
2022/11/25 07:30:53;;;;;;;28.95;9.18;;;;;;;;;;5051867;28;20052;-77
2022/11/25 07:33:39;;;;;;;23.90;8.18;;;;;;;;;;5049585;28;20052;-77
2022/11/25 07:36:07;;;;;;;13.95;4.68;;;;;;;;;;5049970;28;20052;-78
2022/11/25 07:38:34;;;;;;;18.95;5.45;;;;;;;;;;5052262;28;20124;-77
2022/11/25 07:41:08;;;;;;;23.75;3.28;;;;;;;;;;5051505;28;20067;-79
2022/11/25 07:43:35;;;;;;;16.77;2.55;;;;;;;;;;5049707;28;20045;-79
2022/11/25 07:46:10;;;;;;;22.60;3.45;;;;;;;;;;5054073;28;20255;-80
2022/11/25 07:48:37;;;;;;;17.73;4.20;;;;;;;;;;5054419;28;20048;-78
2022/11/25 07:51:03;;;;;;;22.33;3.55;;;;;;;;;;5053206;28;20524;-80
2022/11/25 07:53:30;;;;;;;20.85;3.45;;;;;;;;;;5050887;28;20052;-78
2022/11/25 07:56:01;;;;;;;18.38;3.40;;;;;;;;;;5051570;28;20045;-80
2022/11/25 07:58:28;;;;;;;17.95;3.08;;;;;;;;;;5052204;28;20071;-77
2022/11/25 08:00:54;;;;;;;12.13;2.92;;;;;;;;;;5053950;28;20051;-78
2022/11/25 08:03:21;;;;;;;22.88;3.50;;;;;;;;;;5056642;28;20091;-77
2022/11/25 08:05:47;;;;;;;11.35;3.15;;;;;;;;;;5060569;28;20147;-79
2022/11/25 08:08:14;;;;;;;17.60;3.47;;;;;;;;;;5059600;28;20085;-79
2022/11/25 08:10:40;;;;;;;24.85;3.75;;;;;;;;;;5061538;28;20076;-79
2022/11/25 08:13:06;;;;;;;10.93;2.97;;;;;;;;;;5062172;28;20045;-80
2022/11/25 08:15:33;;;;;;;12.63;2.78;;;;;;;;;;5059198;28;20046;-80
2022/11/25 08:17:59;;;;;;;20.50;2.47;;;;;;;;;;5045378;28;20041;-77
2022/11/25 08:20:26;;;;;;;12.35;1.80;;;;;;;;;;5044227;28;20623;-79
2022/11/25 08:22:52;;;;;;;11.95;1.95;;;;;;;;;;5042818;28;20077;-79
2022/11/25 08:25:19;;;;;;;11.00;1.60;;;;;;;;;;5045159;28;20059;-80
2022/11/25 08:27:46;;;;;;;10.35;1.95;;;;;;;;;;5041654;28;20068;-78
2022/11/25 08:30:13;;;;;;;8.85;1.65;;;;;;;;;;5040715;28;20058;-78
2022/11/25 08:32:39;;;;;;;7.85;1.52;;;;;;;;;;5032218;28;20045;-79
2022/11/25 08:35:06;;;;;;;4.25;1.27;;;;;;;;;;5031838;28;20053;-80
2022/11/25 08:37:32;;;;;;;8.55;1.75;;;;;;;;;;5032491;28;20136;-79
2022/11/25 08:39:59;;;;;;;11.73;1.63;;;;;;;;;;5034743;28;20049;-79
2022/11/25 08:42:26;;;;;;;8.85;1.50;;;;;;;;;;5035163;28;20385;-76
2022/11/25 08:44:54;;;;;;;6.78;1.42;;;;;;;;;;5035259;28;20080;-79
2022/11/25 08:47:21;;;;;;;10.13;1.40;;;;;;;;;;5036260;28;20056;-79
2022/11/25 08:49:53;;;;;;;9.98;1.98;;;;;;;;;;5034880;28;20370;-80
2022/11/25 08:52:20;;;;;;;10.30;1.60;;;;;;;;;;5035634;28;20054;-78
2022/11/25 08:54:47;;;;;;;7.50;1.30;;;;;;;;;;5035517;28;20414;-81
2022/11/25 08:57:13;;;;;;;11.68;1.50;;;;;;;;;;5037247;28;20052;-79
2022/11/25 08:59:40;;;;;;;9.20;1.77;;;;;;;;;;5034560;28;20048;-78
2022/11/25 09:02:07;;;;;;;7.38;1.40;;;;;;;;;;5034003;28;20060;-79
2022/11/25 09:04:34;;;;;;;6.13;1.40;;;;;;;;;;5045262;28;20045;-81
2022/11/25 09:07:03;;;;;;;5.43;1.35;;;;;;;;;;5054551;28;20121;-79
2022/11/25 09:09:29;;;;;;;6.20;1.33;;;;;;;;;;5054263;28;20476;-79
2022/11/25 09:11:56;;;;;;;4.55;1.40;;;;;;;;;;5060167;28;20053;-79
2022/11/25 09:14:22;;;;;;;4.60;1.35;;;;;;;;;;5056108;28;20084;-79
2022/11/25 09:16:49;;;;;;;6.80;1.42;;;;;;;;;;5040441;28;20464;-79
2022/11/25 09:19:15;;;;;;;6.82;1.58;;;;;;;;;;5035796;28;20045;-80
2022/11/25 09:21:42;;;;;;;7.68;1.38;;;;;;;;;;5035140;28;20063;-80
2022/11/25 09:24:09;;;;;;;6.28;1.42;;;;;;;;;;5036453;28;20073;-80
2022/11/25 09:26:38;;;;;;;5.63;1.50;;;;;;;;;;5037455;28;20045;-80
2022/11/25 09:29:04;;;;;;;5.55;1.60;;;;;;;;;;5035143;28;20068;-80
2022/11/25 09:31:31;;;;;;;3.65;1.50;;;;;;;;;;5033634;28;20050;-80
2022/11/25 09:33:58;;;;;;;4.30;1.42;;;;;;;;;;5034158;28;20049;-80
2022/11/25 09:36:24;;;;;;;6.90;1.50;;;;;;;;;;5035815;28;20117;-80
2022/11/25 09:38:50;;;;;;;7.75;1.42;;;;;;;;;;5034865;28;20049;-79
2022/11/25 09:46:40;;;;;;;10.65;1.70;;;;;;;;;;5049376;28;20050;-79
2022/11/25 09:46:59;;;;;;;8.23;1.45;;;;;;;;;;5034612;28;20058;-80
2022/11/25 09:49:28;;;;;;;4.55;1.30;;;;;;;;;;5033310;28;20104;-79
2022/11/25 09:52:04;;;;;;;7.45;1.25;;;;;;;;;;5033993;28;20056;-81
2022/11/25 09:54:33;;;;;;;6.05;1.73;;;;;;;;;;5034716;28;20045;-80
2022/11/25 09:57:14;;;;;;;4.38;1.25;;;;;;;;;;5035632;28;20052;-79
2022/11/25 09:59:44;;;;;;;4.95;1.35;;;;;;;;;;5035402;28;20045;-80
2022/11/25 10:02:13;;;;;;;5.95;1.52;;;;;;;;;;5034756;28;20410;-79
2022/11/25 10:04:43;;;;;;;7.05;1.33;;;;;;;;;;5039927;28;20071;-80
2022/11/25 10:07:17;;;;;;;8.77;1.73;;;;;;;;;;5056456;28;20131;-80
2022/11/25 10:09:43;;;;;;;7.15;1.85;;;;;;;;;;5056219;28;20604;-79
2022/11/25 10:12:12;;;;;;;5.65;1.75;;;;;;;;;;5058301;28;20045;-81
2022/11/25 10:14:44;;;;;;;3.15;1.40;;;;;;;;;;5055808;28;20045;-81
2022/11/25 10:17:20;;;;;;;6.53;1.42;;;;;;;;;;5059240;28;20076;-80
2022/11/25 10:19:58;;;;;;;4.75;1.70;;;;;;;;;;5057846;28;20232;-80
2022/11/25 10:22:36;;;;;;;3.58;1.40;;;;;;;;;;5057616;28;20085;-81
2022/11/25 10:25:12;;;;;;;8.48;2.08;;;;;;;;;;5058822;28;20065;-80
2022/11/25 10:27:42;;;;;;;4.57;1.75;;;;;;;;;;5069541;28;20096;-79
2022/11/25 10:30:15;;;;;;;5.65;1.45;;;;;;;;;;5076105;28;20052;-79
2022/11/25 10:32:44;;;;;;;4.10;1.33;;;;;;;;;;5076632;28;20065;-77
2022/11/25 10:35:17;;;;;;;4.93;1.30;;;;;;;;;;5055815;28;20068;-80
2022/11/25 10:37:44;;;;;;;4.65;1.60;;;;;;;;;;5055608;28;20051;-80
2022/11/25 10:40:15;;;;;;;6.28;1.55;;;;;;;;;;5056082;28;20055;-80
2022/11/25 10:42:42;;;;;;;4.95;1.50;;;;;;;;;;5056628;28;20266;-79
2022/11/25 10:45:09;;;;;;;4.03;1.50;;;;;;;;;;5057742;28;20057;-78
2022/11/25 10:47:54;;;;;;;10.15;1.80;;;;;;;;;;5051584;28;20056;-79
2022/11/25 10:50:41;;;;;;;5.43;1.40;;;;;;;;;;5049976;28;20048;-78
2022/11/25 10:53:13;;;;;;;9.55;2.55;;;;;;;;;;5050826;28;20059;-78
2022/11/25 10:55:54;;;;;;;9.57;1.50;;;;;;;;;;5051373;28;20051;-81
2022/11/25 10:58:37;;;;;;;10.13;2.33;;;;;;;;;;5052281;28;20148;-79
2022/11/25 11:01:13;;;;;;;7.30;1.83;;;;;;;;;;5051849;28;20045;-81
2022/11/25 11:03:40;;;;;;;6.30;1.70;;;;;;;;;;5046770;28;20053;-79
2022/11/25 11:06:26;;;;;;;8.77;1.90;;;;;;;;;;5048889;28;20052;-78
2022/11/25 11:08:52;;;;;;;5.22;1.63;;;;;;;;;;5052973;28;20151;-78
2022/11/25 11:11:20;;;;;;;8.75;1.77;;;;;;;;;;5053003;28;20056;-79
2022/11/25 11:13:47;;;;;;;6.65;1.50;;;;;;;;;;5057053;28;20059;-79
2022/11/25 11:16:19;;;;;;;6.80;1.48;;;;;;;;;;5051036;28;20104;-79
2022/11/25 11:18:46;;;;;;;5.85;1.80;;;;;;;;;;5050717;28;20045;-79
2022/11/25 11:21:40;;;;;;;4.43;1.33;;;;;;;;;;5073831;28;20067;-79
2022/11/25 11:24:27;;;;;;;4.57;1.45;;;;;;;;;;5073063;28;20052;-78
2022/11/25 11:27:20;;;;;;;7.75;1.38;;;;;;;;;;5063418;28;20048;-79
2022/11/25 11:29:47;;;;;;;6.25;1.67;;;;;;;;;;5049962;28;20133;-79
2022/11/25 11:32:21;;;;;;;7.97;1.45;;;;;;;;;;5052245;28;20049;-77
2022/11/25 11:35:07;;;;;;;7.00;1.00;;;;;;;;;;5051952;28;20044;-80
2022/11/25 11:37:41;;;;;;;5.55;1.20;;;;;;;;;;5053789;28;20052;-79
2022/11/25 11:40:26;;;;;;;7.30;2.13;;;;;;;;;;5053263;28;20395;-78
2022/11/25 11:42:56;;;;;;;3.97;1.30;;;;;;;;;;5055187;28;20055;-80
2022/11/25 11:45:22;;;;;;;6.72;1.30;;;;;;;;;;5056032;28;20550;-78
2022/11/25 11:48:01;;;;;;;7.72;1.33;;;;;;;;;;5060632;28;20139;-80
2022/11/25 11:50:37;;;;;;;5.82;1.38;;;;;;;;;;5068462;28;20060;-79
2022/11/25 11:53:26;;;;;;;5.72;1.02;;;;;;;;;;5066999;28;20131;-82
2022/11/25 11:55:59;;;;;;;3.88;1.00;;;;;;;;;;5051356;28;20135;-79
2022/11/25 11:58:58;;;;;;;5.15;1.45;;;;;;;;;;5052405;28;20049;-80
2022/11/25 12:01:35;;;;;;;3.90;1.20;;;;;;;;;;5052288;28;20065;-78
2022/11/25 12:04:01;;;;;;;5.68;1.30;;;;;;;;;;5046851;28;20060;-80
2022/11/25 12:06:30;;;;;;;5.38;1.10;;;;;;;;;;5043037;28;20052;-80
2022/11/25 12:09:01;;;;;;;3.58;1.17;;;;;;;;;;5052713;28;20045;-80
2022/11/25 12:11:34;;;;;;;2.72;1.08;;;;;;;;;;5051304;28;20094;-79
2022/11/25 12:14:06;;;;;;;4.05;1.10;;;;;;;;;;5049493;28;20052;-80
2022/11/25 12:16:34;;;;;;;5.40;1.50;;;;;;;;;;5033268;28;20045;-82
2022/11/25 12:19:20;;;;;;;5.55;1.40;;;;;;;;;;5031141;28;20410;-82
2022/11/25 12:21:54;;;;;;;6.03;1.23;;;;;;;;;;5033451;28;20045;-80
2022/11/25 12:24:28;;;;;;;7.18;1.30;;;;;;;;;;5032969;28;20296;-81
2022/11/25 12:27:01;;;;;;;7.22;1.50;;;;;;;;;;5032308;28;20136;-80
2022/11/25 12:29:47;;;;;;;4.18;0.98;;;;;;;;;;5032913;28;20136;-81
2022/11/25 12:32:24;;;;;;;2.92;1.20;;;;;;;;;;5032616;28;20083;-76
2022/11/25 12:34:57;;;;;;;2.80;1.20;;;;;;;;;;5030768;28;20053;-79
2022/11/25 12:37:36;;;;;;;2.90;1.23;;;;;;;;;;5030281;28;20425;-80
2022/11/25 12:40:06;;;;;;;6.00;1.48;;;;;;;;;;5031592;28;20061;-81
2022/11/25 12:42:35;;;;;;;3.33;1.40;;;;;;;;;;5029906;28;20045;-80
2022/11/25 12:45:15;;;;;;;5.35;1.50;;;;;;;;;;5030474;28;20060;-80
2022/11/25 12:47:42;;;;;;;5.05;1.40;;;;;;;;;;5034440;28;20060;-81
2022/11/25 12:50:17;;;;;;;2.75;1.40;;;;;;;;;;5036733;28;20045;-79
2022/11/25 12:53:01;;;;;;;4.18;1.40;;;;;;;;;;5056582;28;20052;-80
2022/11/25 12:55:29;;;;;;;6.25;1.50;;;;;;;;;;5054163;28;20052;-79
2022/11/25 12:58:14;;;;;;;5.80;1.70;;;;;;;;;;5051455;28;20377;-80
2022/11/25 13:01:02;;;;;;;4.33;1.60;;;;;;;;;;5049672;28;20049;-80
2022/11/25 13:03:47;;;;;;;6.72;1.63;;;;;;;;;;5049091;28;20292;-81
2022/11/25 13:06:33;;;;;;;7.13;1.60;;;;;;;;;;5049556;28;20386;-79
2022/11/25 13:09:08;;;;;;;7.45;1.70;;;;;;;;;;5050872;28;20052;-81
2022/11/25 13:11:37;;;;;;;7.37;1.60;;;;;;;;;;5048374;28;20052;-79
2022/11/25 13:14:25;;;;;;;6.10;1.30;;;;;;;;;;5046029;28;20295;-81
2022/11/25 13:16:54;;;;;;;4.13;1.40;;;;;;;;;;5048229;28;20052;-80
2022/11/25 13:19:24;;;;;;;2.92;1.50;;;;;;;;;;5046495;28;20041;-80
2022/11/25 13:21:58;;;;;;;6.55;1.40;;;;;;;;;;5048529;28;20037;-78
2022/11/25 13:24:31;;;;;;;4.05;1.60;;;;;;;;;;5049997;28;20171;-80
2022/11/25 13:27:00;;;;;;;7.97;2.22;;;;;;;;;;5059260;28;20150;-79
2022/11/25 13:29:29;;;;;;;6.30;1.70;;;;;;;;;;5061297;28;20105;-81
2022/11/25 13:31:56;;;;;;;4.32;1.60;;;;;;;;;;5055911;28;20051;-81
2022/11/25 13:34:24;;;;;;;4.70;1.65;;;;;;;;;;5053837;28;20045;-81
2022/11/25 13:36:52;;;;;;;5.22;1.63;;;;;;;;;;5059616;28;20037;-79
2022/11/25 13:39:28;;;;;;;7.18;1.65;;;;;;;;;;5065550;28;20521;-81
2022/11/25 13:41:55;;;;;;;;;;;;;;;;;;5065187;28;20049;-81
2022/11/25 13:44:26;;;;;;;5.03;1.70;;;;;;;;;;5067974;28;19962;-80
2022/11/25 13:46:54;;;;;;;6.93;1.92;;;;;;;;;;5064545;28;20064;-78
2022/11/25 13:49:23;;;;;;;6.22;1.75;;;;;;;;;;5063369;28;20064;-79
2022/11/25 13:51:50;;;;;;;4.65;1.85;;;;;;;;;;5064484;28;20166;-80
2022/11/25 13:54:22;;;;;;;7.07;1.70;;;;;;;;;;5066488;28;20049;-80
2022/11/25 13:57:00;;;;;;;9.57;2.05;;;;;;;;;;5065169;28;20065;-80
2022/11/25 13:59:34;;;;;;;6.53;1.88;;;;;;;;;;5067863;28;20049;-80
2022/11/25 14:02:19;;;;;;;5.40;1.80;;;;;;;;;;5055759;28;20071;-79
2022/11/25 14:05:04;;;;;;;3.43;1.70;;;;;;;;;;5053540;28;20045;-82
2022/11/25 14:07:46;;;;;;;7.53;1.92;;;;;;;;;;5048269;28;20155;-81
2022/11/25 14:10:31;;;;;;;3.63;1.63;;;;;;;;;;5055092;28;20080;-81
2022/11/25 14:12:58;;;;;;;6.27;1.67;;;;;;;;;;5055682;28;20049;-81
2022/11/25 14:15:43;;;;;;;6.43;2.17;;;;;;;;;;5052592;28;20303;-80
2022/11/25 14:18:16;;;;;;;9.97;2.47;;;;;;;;;;5055269;28;20424;-79
2022/11/25 14:21:00;;;;;;;7.78;2.08;;;;;;;;;;5054414;28;20291;-79
2022/11/25 14:23:40;;;;;;;5.88;1.85;;;;;;;;;;5055333;28;20777;-79
2022/11/25 14:26:08;;;;;;;5.30;1.70;;;;;;;;;;5065269;28;20063;-78
2022/11/25 14:29:01;;;;;;;7.60;1.90;;;;;;;;;;5068359;28;20064;-79
2022/11/25 14:31:36;;;;;;;6.13;1.83;;;;;;;;;;5067307;28;20097;-78
2022/11/25 14:34:05;;;;;;;6.13;1.73;;;;;;;;;;5065077;28;20113;-79
2022/11/25 14:36:41;;;;;;;5.47;1.80;;;;;;;;;;5055034;28;20449;-81
2022/11/25 14:39:12;;;;;;;8.52;1.90;;;;;;;;;;5054992;28;20396;-80
2022/11/25 14:41:42;;;;;;;7.10;1.88;;;;;;;;;;5055461;28;20047;-81
2022/11/25 14:44:13;;;;;;;8.00;1.83;;;;;;;;;;5053630;28;20061;-80
2022/11/25 14:46:52;;;;;;;6.70;1.73;;;;;;;;;;5055793;28;20048;-79
2022/11/25 14:49:21;;;;;;;7.30;1.98;;;;;;;;;;5054678;28;20053;-81
2022/11/25 14:52:07;;;;;;;5.20;2.00;;;;;;;;;;5055689;28;20554;-80
2022/11/25 14:54:38;;;;;;;5.20;2.20;;;;;;;;;;5053215;28;20470;-79
2022/11/25 14:57:05;;;;;;;7.13;2.03;;;;;;;;;;5053015;28;20041;-80
2022/11/25 14:59:33;;;;;;;9.82;2.10;;;;;;;;;;5051949;28;20045;-80
2022/11/25 15:01:59;;;;;;;5.78;1.90;;;;;;;;;;5052701;28;20077;-80
2022/11/25 15:04:30;;;;;;;4.78;2.03;;;;;;;;;;5050637;28;20045;-81